sensor_id;sensor_type;location;lat;lon;timestamp;pressure;altitude;pressure_sealevel;temperature;humidity
30819;BME280;17546;42.674;23.284;2023-02-18T00:02:02;95468.50;;;13.09;32.32
30819;BME280;17546;42.674;23.284;2023-02-18T00:04:28;95459.25;;;12.91;32.33
30819;BME280;17546;42.674;23.284;2023-02-18T00:06:53;95453.16;;;12.87;32.44
30819;BME280;17546;42.674;23.284;2023-02-18T00:09:19;95452.63;;;12.83;32.34
30819;BME280;17546;42.674;23.284;2023-02-18T00:11:44;95458.72;;;12.87;32.46
30819;BME280;17546;42.674;23.284;2023-02-18T00:14:12;95455.41;;;12.51;33.10
30819;BME280;17546;42.674;23.284;2023-02-18T00:16:38;95455.22;;;12.55;33.16
30819;BME280;17546;42.674;23.284;2023-02-18T00:19:06;95452.75;;;12.10;33.68
30819;BME280;17546;42.674;23.284;2023-02-18T00:21:33;95446.19;;;11.87;34.19
30819;BME280;17546;42.674;23.284;2023-02-18T00:23:59;95441.16;;;12.38;33.46
30819;BME280;17546;42.674;23.284;2023-02-18T00:26:25;95435.69;;;12.49;33.12
30819;BME280;17546;42.674;23.284;2023-02-18T00:28:50;95429.84;;;12.42;33.46
30819;BME280;17546;42.674;23.284;2023-02-18T00:31:29;95428.63;;;12.48;33.33
30819;BME280;17546;42.674;23.284;2023-02-18T00:33:56;95413.84;;;12.05;34.01
30819;BME280;17546;42.674;23.284;2023-02-18T00:36:23;95439.53;;;12.26;33.71
30819;BME280;17546;42.674;23.284;2023-02-18T00:38:51;95417.94;;;12.41;33.42
30819;BME280;17546;42.674;23.284;2023-02-18T00:41:18;95411.63;;;12.40;33.48
30819;BME280;17546;42.674;23.284;2023-02-18T00:43:43;95418.94;;;12.38;33.45
30819;BME280;17546;42.674;23.284;2023-02-18T00:46:09;95419.75;;;12.44;33.35
30819;BME280;17546;42.674;23.284;2023-02-18T00:48:35;95419.13;;;12.29;33.56
30819;BME280;17546;42.674;23.284;2023-02-18T00:51:01;95407.16;;;12.17;33.53
30819;BME280;17546;42.674;23.284;2023-02-18T00:53:27;95407.94;;;11.97;33.97
30819;BME280;17546;42.674;23.284;2023-02-18T00:55:53;95415.63;;;11.61;34.97
30819;BME280;17546;42.674;23.284;2023-02-18T00:58:19;95413.53;;;11.15;35.23
30819;BME280;17546;42.674;23.284;2023-02-18T01:00:44;95407.38;;;11.46;34.81
30819;BME280;17546;42.674;23.284;2023-02-18T01:03:11;95416.56;;;11.78;34.23
30819;BME280;17546;42.674;23.284;2023-02-18T01:05:38;95417.84;;;11.77;34.40
30819;BME280;17546;42.674;23.284;2023-02-18T01:08:05;95412.28;;;12.04;34.04
30819;BME280;17546;42.674;23.284;2023-02-18T01:10:31;95394.97;;;12.14;33.90
30819;BME280;17546;42.674;23.284;2023-02-18T01:12:57;95407.53;;;11.84;34.22
30819;BME280;17546;42.674;23.284;2023-02-18T01:15:23;95409.69;;;11.94;34.16
30819;BME280;17546;42.674;23.284;2023-02-18T01:17:48;95414.16;;;12.12;33.75
30819;BME280;17546;42.674;23.284;2023-02-18T01:20:17;95401.16;;;11.98;34.23
30819;BME280;17546;42.674;23.284;2023-02-18T01:22:43;95409.47;;;11.98;34.15
30819;BME280;17546;42.674;23.284;2023-02-18T01:25:09;95399.19;;;11.84;34.35
30819;BME280;17546;42.674;23.284;2023-02-18T01:27:35;95414.31;;;12.03;34.19
30819;BME280;17546;42.674;23.284;2023-02-18T01:30:03;95392.38;;;12.05;34.03
30819;BME280;17546;42.674;23.284;2023-02-18T01:32:29;95413.19;;;12.15;33.75
30819;BME280;17546;42.674;23.284;2023-02-18T01:34:54;95403.50;;;12.05;34.26
30819;BME280;17546;42.674;23.284;2023-02-18T01:37:20;95399.13;;;12.25;33.71
30819;BME280;17546;42.674;23.284;2023-02-18T01:39:46;95398.03;;;12.16;33.76
30819;BME280;17546;42.674;23.284;2023-02-18T01:42:18;95400.41;;;12.29;33.70
30819;BME280;17546;42.674;23.284;2023-02-18T01:44:46;95406.34;;;12.11;34.14
30819;BME280;17546;42.674;23.284;2023-02-18T01:47:13;95420.50;;;12.13;34.08
30819;BME280;17546;42.674;23.284;2023-02-18T01:49:39;95411.50;;;12.24;33.73
30819;BME280;17546;42.674;23.284;2023-02-18T01:52:12;95416.22;;;12.17;33.91
30819;BME280;17546;42.674;23.284;2023-02-18T01:54:57;95412.19;;;12.18;33.90
30819;BME280;17546;42.674;23.284;2023-02-18T01:57:28;95420.59;;;12.24;33.42
30819;BME280;17546;42.674;23.284;2023-02-18T01:59:59;95428.03;;;12.12;33.64
30819;BME280;17546;42.674;23.284;2023-02-18T02:02:30;95425.88;;;12.22;33.68
30819;BME280;17546;42.674;23.284;2023-02-18T02:04:58;95417.16;;;12.35;33.46
30819;BME280;17546;42.674;23.284;2023-02-18T02:07:27;95416.00;;;12.21;33.51
30819;BME280;17546;42.674;23.284;2023-02-18T02:09:57;95425.91;;;12.28;33.45
30819;BME280;17546;42.674;23.284;2023-02-18T02:15:57;95419.88;;;12.29;33.38
30819;BME280;17546;42.674;23.284;2023-02-18T02:29:35;95405.16;;;11.50;34.83
30819;BME280;17546;42.674;23.284;2023-02-18T02:37:26;95398.81;;;11.70;34.35
30819;BME280;17546;42.674;23.284;2023-02-18T02:46:17;95382.25;;;12.02;34.04
30819;BME280;17546;42.674;23.284;2023-02-18T02:52:02;95377.16;;;11.95;33.96
30819;BME280;17546;42.674;23.284;2023-02-18T02:54:29;95389.03;;;11.95;34.19
30819;BME280;17546;42.674;23.284;2023-02-18T02:59:43;95399.72;;;11.82;34.36
30819;BME280;17546;42.674;23.284;2023-02-18T03:02:15;95404.00;;;11.83;34.46
30819;BME280;17546;42.674;23.284;2023-02-18T03:07:48;95413.25;;;11.74;34.51
30819;BME280;17546;42.674;23.284;2023-02-18T03:12:56;95413.25;;;11.74;34.36
30819;BME280;17546;42.674;23.284;2023-02-18T03:15:39;95414.00;;;11.75;34.19
30819;BME280;17546;42.674;23.284;2023-02-18T03:18:20;95380.25;;;11.56;34.44
30819;BME280;17546;42.674;23.284;2023-02-18T03:23:30;95415.06;;;11.57;34.71
30819;BME280;17546;42.674;23.284;2023-02-18T03:25:58;95413.91;;;11.43;35.29
30819;BME280;17546;42.674;23.284;2023-02-18T03:28:27;95418.69;;;10.51;36.52
30819;BME280;17546;42.674;23.284;2023-02-18T03:30:59;95436.13;;;11.08;35.52
30819;BME280;17546;42.674;23.284;2023-02-18T03:33:36;95435.84;;;11.06;35.79
30819;BME280;17546;42.674;23.284;2023-02-18T03:36:05;95439.53;;;11.17;35.71
30819;BME280;17546;42.674;23.284;2023-02-18T03:38:38;95441.41;;;11.26;35.37
30819;BME280;17546;42.674;23.284;2023-02-18T03:41:05;95438.63;;;11.06;35.87
30819;BME280;17546;42.674;23.284;2023-02-18T03:43:30;95443.38;;;11.20;35.60
30819;BME280;17546;42.674;23.284;2023-02-18T03:45:56;95451.81;;;11.11;35.63
30819;BME280;17546;42.674;23.284;2023-02-18T03:48:22;95467.34;;;11.23;35.62
30819;BME280;17546;42.674;23.284;2023-02-18T03:50:47;95454.06;;;10.92;35.95
30819;BME280;17546;42.674;23.284;2023-02-18T03:53:13;95458.06;;;10.41;36.93
30819;BME280;17546;42.674;23.284;2023-02-18T03:55:38;95461.34;;;10.89;36.03
30819;BME280;17546;42.674;23.284;2023-02-18T03:58:04;95465.88;;;10.57;36.61
30819;BME280;17546;42.674;23.284;2023-02-18T04:00:30;95453.84;;;10.95;35.95
30819;BME280;17546;42.674;23.284;2023-02-18T04:02:55;95453.91;;;11.16;35.94
30819;BME280;17546;42.674;23.284;2023-02-18T04:05:21;95444.88;;;11.21;35.67
30819;BME280;17546;42.674;23.284;2023-02-18T04:07:46;95440.66;;;11.26;35.42
30819;BME280;17546;42.674;23.284;2023-02-18T04:10:12;95444.47;;;11.28;35.53
30819;BME280;17546;42.674;23.284;2023-02-18T04:12:37;95445.25;;;11.29;35.67
30819;BME280;17546;42.674;23.284;2023-02-18T04:15:03;95448.38;;;11.36;35.55
30819;BME280;17546;42.674;23.284;2023-02-18T04:17:29;95431.91;;;11.12;35.81
30819;BME280;17546;42.674;23.284;2023-02-18T04:19:54;95435.72;;;11.15;35.95
30819;BME280;17546;42.674;23.284;2023-02-18T04:22:20;95420.91;;;11.38;35.26
30819;BME280;17546;42.674;23.284;2023-02-18T04:24:45;95432.44;;;11.31;35.54
30819;BME280;17546;42.674;23.284;2023-02-18T04:27:11;95408.09;;;10.50;36.95
30819;BME280;17546;42.674;23.284;2023-02-18T04:29:37;95405.81;;;10.84;36.36
30819;BME280;17546;42.674;23.284;2023-02-18T04:32:02;95407.78;;;10.63;36.74
30819;BME280;17546;42.674;23.284;2023-02-18T04:34:28;95406.84;;;10.86;36.45
30819;BME280;17546;42.674;23.284;2023-02-18T04:36:53;95408.47;;;10.93;36.28
30819;BME280;17546;42.674;23.284;2023-02-18T04:39:20;95412.56;;;10.98;36.02
30819;BME280;17546;42.674;23.284;2023-02-18T04:41:45;95420.06;;;11.12;35.88
30819;BME280;17546;42.674;23.284;2023-02-18T04:44:11;95415.28;;;11.12;36.09
30819;BME280;17546;42.674;23.284;2023-02-18T04:46:36;95419.78;;;11.10;35.98
30819;BME280;17546;42.674;23.284;2023-02-18T04:49:03;95418.00;;;11.07;35.90
30819;BME280;17546;42.674;23.284;2023-02-18T04:51:28;95424.56;;;11.09;35.73
30819;BME280;17546;42.674;23.284;2023-02-18T04:53:54;95431.38;;;10.93;36.16
30819;BME280;17546;42.674;23.284;2023-02-18T04:56:19;95433.38;;;11.08;36.45
30819;BME280;17546;42.674;23.284;2023-02-18T04:58:45;95428.53;;;11.23;35.76
30819;BME280;17546;42.674;23.284;2023-02-18T05:01:11;95427.81;;;10.87;36.19
30819;BME280;17546;42.674;23.284;2023-02-18T05:03:37;95424.81;;;10.91;36.10
30819;BME280;17546;42.674;23.284;2023-02-18T05:06:02;95441.56;;;11.17;35.43
30819;BME280;17546;42.674;23.284;2023-02-18T05:08:28;95461.63;;;11.27;35.72
30819;BME280;17546;42.674;23.284;2023-02-18T05:10:53;95456.13;;;11.32;35.60
30819;BME280;17546;42.674;23.284;2023-02-18T05:13:19;95451.06;;;11.31;35.53
30819;BME280;17546;42.674;23.284;2023-02-18T05:15:44;95454.22;;;11.03;35.91
30819;BME280;17546;42.674;23.284;2023-02-18T05:18:10;95455.41;;;11.17;35.41
30819;BME280;17546;42.674;23.284;2023-02-18T05:20:35;95443.41;;;10.70;36.28
30819;BME280;17546;42.674;23.284;2023-02-18T05:23:01;95437.81;;;10.49;36.52
30819;BME280;17546;42.674;23.284;2023-02-18T05:25:29;95436.41;;;10.74;36.05
30819;BME280;17546;42.674;23.284;2023-02-18T05:27:55;95429.75;;;10.51;36.73
30819;BME280;17546;42.674;23.284;2023-02-18T05:30:20;95430.91;;;10.60;36.49
30819;BME280;17546;42.674;23.284;2023-02-18T05:32:46;95434.84;;;10.88;36.12
30819;BME280;17546;42.674;23.284;2023-02-18T05:35:11;95417.63;;;10.99;36.31
30819;BME280;17546;42.674;23.284;2023-02-18T05:37:38;95412.22;;;11.10;35.68
30819;BME280;17546;42.674;23.284;2023-02-18T05:40:04;95415.97;;;10.72;36.21
30819;BME280;17546;42.674;23.284;2023-02-18T05:42:30;95422.38;;;11.13;36.24
30819;BME280;17546;42.674;23.284;2023-02-18T05:44:57;95424.84;;;11.32;35.76
30819;BME280;17546;42.674;23.284;2023-02-18T05:47:23;95418.13;;;11.38;35.97
30819;BME280;17546;42.674;23.284;2023-02-18T05:49:48;95430.22;;;11.35;35.80
30819;BME280;17546;42.674;23.284;2023-02-18T05:52:15;95430.06;;;11.45;35.83
30819;BME280;17546;42.674;23.284;2023-02-18T05:54:41;95448.78;;;11.50;35.70
30819;BME280;17546;42.674;23.284;2023-02-18T05:57:06;95453.63;;;11.55;35.27
30819;BME280;17546;42.674;23.284;2023-02-18T05:59:32;95454.69;;;11.57;35.30
30819;BME280;17546;42.674;23.284;2023-02-18T06:01:57;95464.06;;;11.60;35.45
30819;BME280;17546;42.674;23.284;2023-02-18T06:04:23;95458.44;;;11.54;35.62
30819;BME280;17546;42.674;23.284;2023-02-18T06:06:49;95462.25;;;11.57;35.33
30819;BME280;17546;42.674;23.284;2023-02-18T06:09:15;95444.75;;;11.71;35.50
30819;BME280;17546;42.674;23.284;2023-02-18T06:11:40;95445.59;;;11.77;35.15
30819;BME280;17546;42.674;23.284;2023-02-18T06:14:06;95450.22;;;11.66;35.21
30819;BME280;17546;42.674;23.284;2023-02-18T06:16:31;95444.47;;;11.69;35.08
30819;BME280;17546;42.674;23.284;2023-02-18T06:18:57;95447.25;;;11.69;34.91
30819;BME280;17546;42.674;23.284;2023-02-18T06:21:23;95444.19;;;11.88;34.82
30819;BME280;17546;42.674;23.284;2023-02-18T06:23:48;95437.53;;;11.79;34.69
30819;BME280;17546;42.674;23.284;2023-02-18T06:26:14;95445.44;;;11.66;35.27
30819;BME280;17546;42.674;23.284;2023-02-18T06:28:39;95449.03;;;11.72;35.32
30819;BME280;17546;42.674;23.284;2023-02-18T06:31:05;95428.38;;;11.73;35.05
30819;BME280;17546;42.674;23.284;2023-02-18T06:33:30;95426.31;;;11.89;34.86
30819;BME280;17546;42.674;23.284;2023-02-18T06:36:02;95433.66;;;11.92;34.81
30819;BME280;17546;42.674;23.284;2023-02-18T06:38:28;95428.53;;;11.64;35.24
30819;BME280;17546;42.674;23.284;2023-02-18T06:40:53;95433.50;;;11.81;35.09
30819;BME280;17546;42.674;23.284;2023-02-18T06:43:19;95436.69;;;11.94;35.15
30819;BME280;17546;42.674;23.284;2023-02-18T06:45:45;95437.53;;;11.79;34.97
30819;BME280;17546;42.674;23.284;2023-02-18T06:48:11;95444.09;;;12.03;34.88
30819;BME280;17546;42.674;23.284;2023-02-18T06:50:37;95435.94;;;12.19;34.65
30819;BME280;17546;42.674;23.284;2023-02-18T06:53:03;95435.50;;;12.27;34.44
30819;BME280;17546;42.674;23.284;2023-02-18T06:55:28;95427.81;;;11.90;34.85
30819;BME280;17546;42.674;23.284;2023-02-18T06:57:54;95432.81;;;12.38;34.40
30819;BME280;17546;42.674;23.284;2023-02-18T07:00:19;95412.34;;;12.35;34.42
30819;BME280;17546;42.674;23.284;2023-02-18T07:02:45;95434.13;;;12.74;33.68
30819;BME280;17546;42.674;23.284;2023-02-18T07:05:10;95447.84;;;12.84;33.58
30819;BME280;17546;42.674;23.284;2023-02-18T07:07:36;95432.47;;;12.88;33.80
30819;BME280;17546;42.674;23.284;2023-02-18T07:10:01;95430.09;;;12.75;33.10
30819;BME280;17546;42.674;23.284;2023-02-18T07:12:27;95426.44;;;12.95;33.27
30819;BME280;17546;42.674;23.284;2023-02-18T07:14:52;95422.88;;;12.57;33.65
30819;BME280;17546;42.674;23.284;2023-02-18T07:17:18;95410.69;;;12.87;33.13
30819;BME280;17546;42.674;23.284;2023-02-18T07:19:44;95416.84;;;12.96;33.03
30819;BME280;17546;42.674;23.284;2023-02-18T07:22:10;95419.72;;;13.13;32.56
30819;BME280;17546;42.674;23.284;2023-02-18T07:24:35;95412.31;;;12.61;33.03
30819;BME280;17546;42.674;23.284;2023-02-18T07:27:01;95409.06;;;12.69;33.14
30819;BME280;17546;42.674;23.284;2023-02-18T07:29:26;95412.84;;;13.03;32.85
30819;BME280;17546;42.674;23.284;2023-02-18T07:31:52;95413.91;;;12.42;33.44
30819;BME280;17546;42.674;23.284;2023-02-18T07:34:18;95408.63;;;12.44;33.29
30819;BME280;17546;42.674;23.284;2023-02-18T07:36:44;95426.81;;;12.77;33.33
30819;BME280;17546;42.674;23.284;2023-02-18T07:39:09;95434.56;;;12.67;33.11
30819;BME280;17546;42.674;23.284;2023-02-18T07:41:34;95429.81;;;12.73;32.85
30819;BME280;17546;42.674;23.284;2023-02-18T07:44:00;95436.66;;;13.10;32.71
30819;BME280;17546;42.674;23.284;2023-02-18T07:46:25;95455.06;;;13.07;32.63
30819;BME280;17546;42.674;23.284;2023-02-18T07:48:51;95453.75;;;13.34;32.57
30819;BME280;17546;42.674;23.284;2023-02-18T07:51:16;95455.06;;;13.44;32.62
30819;BME280;17546;42.674;23.284;2023-02-18T07:53:42;95451.03;;;13.08;32.65
30819;BME280;17546;42.674;23.284;2023-02-18T07:56:07;95466.25;;;13.56;32.20
30819;BME280;17546;42.674;23.284;2023-02-18T07:58:35;95457.06;;;13.38;32.15
30819;BME280;17546;42.674;23.284;2023-02-18T08:01:05;95443.38;;;12.97;32.87
30819;BME280;17546;42.674;23.284;2023-02-18T08:03:31;95445.06;;;13.27;32.51
30819;BME280;17546;42.674;23.284;2023-02-18T08:05:57;95434.63;;;13.16;32.85
30819;BME280;17546;42.674;23.284;2023-02-18T08:08:25;95440.81;;;13.31;32.51
30819;BME280;17546;42.674;23.284;2023-02-18T08:10:53;95442.47;;;13.55;32.31
30819;BME280;17546;42.674;23.284;2023-02-18T08:13:18;95449.06;;;13.14;32.78
30819;BME280;17546;42.674;23.284;2023-02-18T08:15:44;95434.91;;;13.61;32.10
30819;BME280;17546;42.674;23.284;2023-02-18T08:18:17;95434.41;;;13.68;32.10
30819;BME280;17546;42.674;23.284;2023-02-18T08:20:43;95441.28;;;13.84;32.15
30819;BME280;17546;42.674;23.284;2023-02-18T08:23:10;95430.72;;;14.05;31.69
30819;BME280;17546;42.674;23.284;2023-02-18T08:25:35;95431.41;;;13.77;32.01
30819;BME280;17546;42.674;23.284;2023-02-18T08:28:01;95415.97;;;13.82;32.14
30819;BME280;17546;42.674;23.284;2023-02-18T08:30:27;95415.44;;;13.72;32.02
30819;BME280;17546;42.674;23.284;2023-02-18T08:32:52;95410.91;;;13.69;31.67
30819;BME280;17546;42.674;23.284;2023-02-18T08:35:18;95419.81;;;13.84;31.79
30819;BME280;17546;42.674;23.284;2023-02-18T08:37:43;95423.53;;;13.70;31.89
30819;BME280;17546;42.674;23.284;2023-02-18T08:40:10;95407.84;;;13.67;32.13
30819;BME280;17546;42.674;23.284;2023-02-18T08:42:36;95404.66;;;14.19;31.51
30819;BME280;17546;42.674;23.284;2023-02-18T08:45:01;95389.63;;;13.77;32.01
30819;BME280;17546;42.674;23.284;2023-02-18T08:47:27;95397.22;;;13.71;32.49
30819;BME280;17546;42.674;23.284;2023-02-18T08:49:53;95404.38;;;14.00;31.88
30819;BME280;17546;42.674;23.284;2023-02-18T08:52:19;95416.81;;;14.16;31.78
30819;BME280;17546;42.674;23.284;2023-02-18T08:54:44;95419.03;;;13.84;32.19
30819;BME280;17546;42.674;23.284;2023-02-18T08:57:10;95415.53;;;14.06;32.10
30819;BME280;17546;42.674;23.284;2023-02-18T08:59:35;95416.59;;;14.59;31.51
30819;BME280;17546;42.674;23.284;2023-02-18T09:02:01;95421.41;;;14.53;31.35
30819;BME280;17546;42.674;23.284;2023-02-18T09:04:26;95425.22;;;14.90;31.08
30819;BME280;17546;42.674;23.284;2023-02-18T09:06:52;95420.63;;;15.03;31.03
30819;BME280;17546;42.674;23.284;2023-02-18T09:09:17;95418.63;;;14.98;31.08
30819;BME280;17546;42.674;23.284;2023-02-18T09:11:43;95427.50;;;15.02;31.00
30819;BME280;17546;42.674;23.284;2023-02-18T09:14:10;95430.50;;;15.21;30.86
30819;BME280;17546;42.674;23.284;2023-02-18T09:16:38;95424.66;;;15.25;30.66
30819;BME280;17546;42.674;23.284;2023-02-18T09:19:04;95414.53;;;15.05;30.67
30819;BME280;17546;42.674;23.284;2023-02-18T09:21:29;95426.13;;;15.43;30.43
30819;BME280;17546;42.674;23.284;2023-02-18T09:23:55;95429.94;;;15.40;30.43
30819;BME280;17546;42.674;23.284;2023-02-18T09:26:22;95425.19;;;15.18;30.43
30819;BME280;17546;42.674;23.284;2023-02-18T09:28:48;95414.97;;;15.37;30.50
30819;BME280;17546;42.674;23.284;2023-02-18T09:31:17;95400.44;;;15.56;29.90
30819;BME280;17546;42.674;23.284;2023-02-18T09:34:01;95395.88;;;15.53;30.48
30819;BME280;17546;42.674;23.284;2023-02-18T09:36:27;95402.94;;;15.65;29.98
30819;BME280;17546;42.674;23.284;2023-02-18T09:38:53;95383.38;;;15.70;30.28
30819;BME280;17546;42.674;23.284;2023-02-18T09:41:31;95401.81;;;15.90;30.05
30819;BME280;17546;42.674;23.284;2023-02-18T09:44:22;95394.53;;;16.23;29.97
30819;BME280;17546;42.674;23.284;2023-02-18T09:47:12;95398.63;;;16.17;29.17
30819;BME280;17546;42.674;23.284;2023-02-18T09:49:52;95398.88;;;16.19;30.67
30819;BME280;17546;42.674;23.284;2023-02-18T09:52:27;95389.25;;;16.50;29.76
30819;BME280;17546;42.674;23.284;2023-02-18T09:54:54;95392.81;;;16.75;29.21
30819;BME280;17546;42.674;23.284;2023-02-18T09:57:50;95385.03;;;17.23;28.70
30819;BME280;17546;42.674;23.284;2023-02-18T10:00:24;95378.34;;;17.26;28.29
30819;BME280;17546;42.674;23.284;2023-02-18T10:02:58;95378.13;;;17.67;27.85
30819;BME280;17546;42.674;23.284;2023-02-18T10:05:27;95373.03;;;17.66;27.56
30819;BME280;17546;42.674;23.284;2023-02-18T10:08:06;95368.31;;;17.99;27.22
30819;BME280;17546;42.674;23.284;2023-02-18T10:10:46;95373.38;;;18.51;27.74
30819;BME280;17546;42.674;23.284;2023-02-18T10:13:17;95366.63;;;18.73;26.81
30819;BME280;17546;42.674;23.284;2023-02-18T10:15:43;95355.25;;;19.11;26.50
30819;BME280;17546;42.674;23.284;2023-02-18T10:20:56;95362.63;;;19.28;26.16
30819;BME280;17546;42.674;23.284;2023-02-18T10:23:24;95362.38;;;19.79;25.57
30819;BME280;17546;42.674;23.284;2023-02-18T10:25:50;95353.41;;;20.15;25.68
30819;BME280;17546;42.674;23.284;2023-02-18T10:28:18;95359.56;;;20.27;24.72
30819;BME280;17546;42.674;23.284;2023-02-18T10:30:55;95360.19;;;20.54;24.82
30819;BME280;17546;42.674;23.284;2023-02-18T10:36:29;95353.19;;;20.13;24.28
30819;BME280;17546;42.674;23.284;2023-02-18T10:45:40;95335.56;;;20.68;24.01
30819;BME280;17546;42.674;23.284;2023-02-18T10:50:32;95333.06;;;20.85;23.59
30819;BME280;17546;42.674;23.284;2023-02-18T10:53:07;95321.06;;;21.42;23.21
30819;BME280;17546;42.674;23.284;2023-02-18T10:55:38;95323.78;;;21.26;22.89
30819;BME280;17546;42.674;23.284;2023-02-18T10:58:24;95313.47;;;21.65;22.71
30819;BME280;17546;42.674;23.284;2023-02-18T11:00:50;95311.28;;;21.14;22.70
30819;BME280;17546;42.674;23.284;2023-02-18T11:03:21;95308.19;;;20.68;22.93
30819;BME280;17546;42.674;23.284;2023-02-18T11:05:50;95300.63;;;20.92;22.94
30819;BME280;17546;42.674;23.284;2023-02-18T11:08:25;95297.72;;;21.05;22.82
30819;BME280;17546;42.674;23.284;2023-02-18T11:10:53;95290.72;;;21.27;22.48
30819;BME280;17546;42.674;23.284;2023-02-18T11:13:29;95290.38;;;21.31;22.84
30819;BME280;17546;42.674;23.284;2023-02-18T11:16:02;95290.28;;;21.15;22.69
30819;BME280;17546;42.674;23.284;2023-02-18T11:18:36;95291.44;;;21.20;22.49
30819;BME280;17546;42.674;23.284;2023-02-18T11:21:28;95272.19;;;21.03;20.96
30819;BME280;17546;42.674;23.284;2023-02-18T11:23:56;95269.06;;;20.85;20.43
30819;BME280;17546;42.674;23.284;2023-02-18T11:26:32;95259.94;;;20.64;20.26
30819;BME280;17546;42.674;23.284;2023-02-18T11:29:08;95256.94;;;20.70;20.17
30819;BME280;17546;42.674;23.284;2023-02-18T11:31:45;95251.53;;;20.51;20.23
30819;BME280;17546;42.674;23.284;2023-02-18T11:34:19;95235.78;;;20.76;20.26
30819;BME280;17546;42.674;23.284;2023-02-18T11:36:46;95236.16;;;20.52;20.39
30819;BME280;17546;42.674;23.284;2023-02-18T11:39:26;95230.13;;;20.48;20.25
30819;BME280;17546;42.674;23.284;2023-02-18T11:41:55;95233.47;;;20.17;20.37
30819;BME280;17546;42.674;23.284;2023-02-18T11:44:35;95209.53;;;20.53;20.41
30819;BME280;17546;42.674;23.284;2023-02-18T11:47:02;95215.31;;;20.68;20.21
30819;BME280;17546;42.674;23.284;2023-02-18T11:49:30;95228.66;;;20.75;20.43
30819;BME280;17546;42.674;23.284;2023-02-18T11:52:17;95200.91;;;20.79;20.21
30819;BME280;17546;42.674;23.284;2023-02-18T11:54:58;95209.44;;;20.95;20.17
30819;BME280;17546;42.674;23.284;2023-02-18T11:57:24;95202.59;;;20.75;20.53
30819;BME280;17546;42.674;23.284;2023-02-18T11:59:51;95199.75;;;21.11;20.08
30819;BME280;17546;42.674;23.284;2023-02-18T12:05:12;95183.06;;;21.21;20.27
30819;BME280;17546;42.674;23.284;2023-02-18T12:10:22;95179.94;;;21.40;20.37
30819;BME280;17546;42.674;23.284;2023-02-18T12:13:04;95179.63;;;21.07;20.10
30819;BME280;17546;42.674;23.284;2023-02-18T12:15:48;95181.16;;;20.72;20.77
30819;BME280;17546;42.674;23.284;2023-02-18T12:18:50;95189.19;;;20.68;20.96
30819;BME280;17546;42.674;23.284;2023-02-18T12:24:20;95186.25;;;21.17;20.52
30819;BME280;17546;42.674;23.284;2023-02-18T12:35:56;95173.56;;;20.59;20.87
30819;BME280;17546;42.674;23.284;2023-02-18T12:38:42;95160.78;;;20.29;21.18
30819;BME280;17546;42.674;23.284;2023-02-18T12:47:19;95152.78;;;21.06;20.61
30819;BME280;17546;42.674;23.284;2023-02-18T12:53:10;95144.69;;;20.95;20.72
30819;BME280;17546;42.674;23.284;2023-02-18T13:01:35;95151.66;;;21.09;20.90
30819;BME280;17546;42.674;23.284;2023-02-18T13:18:00;95161.81;;;21.56;20.98
30819;BME280;17546;42.674;23.284;2023-02-18T13:22:58;95150.66;;;21.43;21.23
30819;BME280;17546;42.674;23.284;2023-02-18T13:25:24;95150.50;;;20.97;21.49
30819;BME280;17546;42.674;23.284;2023-02-18T13:28:06;95154.38;;;21.38;21.42
30819;BME280;17546;42.674;23.284;2023-02-18T13:33:50;95136.59;;;21.51;21.40
30819;BME280;17546;42.674;23.284;2023-02-18T13:36:56;95154.34;;;21.22;21.80
30819;BME280;17546;42.674;23.284;2023-02-18T13:39:26;95141.88;;;20.95;22.01
30819;BME280;17546;42.674;23.284;2023-02-18T13:50:25;95155.97;;;21.54;22.57
30819;BME280;17546;42.674;23.284;2023-02-18T13:53:21;95140.59;;;21.03;22.75
30819;BME280;17546;42.674;23.284;2023-02-18T13:55:57;95126.66;;;20.90;22.44
30819;BME280;17546;42.674;23.284;2023-02-18T14:01:54;95133.22;;;20.93;22.37
30819;BME280;17546;42.674;23.284;2023-02-18T14:09:45;95145.44;;;21.03;23.72
30819;BME280;17546;42.674;23.284;2023-02-18T14:25:49;95138.63;;;20.54;24.71
30819;BME280;17546;42.674;23.284;2023-02-18T14:28:43;95143.41;;;20.67;24.56
30819;BME280;17546;42.674;23.284;2023-02-18T14:42:49;95148.78;;;20.00;25.14
30819;BME280;17546;42.674;23.284;2023-02-18T14:45:52;95140.38;;;20.08;25.37
30819;BME280;17546;42.674;23.284;2023-02-18T14:50:56;95143.34;;;19.81;25.43
30819;BME280;17546;42.674;23.284;2023-02-18T14:53:25;95137.06;;;19.33;26.43
30819;BME280;17546;42.674;23.284;2023-02-18T14:55:57;95125.31;;;18.73;27.20
30819;BME280;17546;42.674;23.284;2023-02-18T14:58:38;95125.63;;;19.31;26.60
30819;BME280;17546;42.674;23.284;2023-02-18T15:01:32;95125.22;;;19.69;25.78
30819;BME280;17546;42.674;23.284;2023-02-18T15:03:59;95132.22;;;19.54;26.21
30819;BME280;17546;42.674;23.284;2023-02-18T15:06:32;95124.91;;;19.93;26.01
30819;BME280;17546;42.674;23.284;2023-02-18T15:09:00;95120.78;;;19.94;25.82
30819;BME280;17546;42.674;23.284;2023-02-18T15:11:42;95136.38;;;19.95;25.77
30819;BME280;17546;42.674;23.284;2023-02-18T15:14:20;95139.34;;;19.55;26.71
30819;BME280;17546;42.674;23.284;2023-02-18T15:16:48;95138.69;;;19.63;26.54
30819;BME280;17546;42.674;23.284;2023-02-18T15:19:15;95132.16;;;19.68;26.48
30819;BME280;17546;42.674;23.284;2023-02-18T15:21:45;95123.94;;;19.91;26.15
30819;BME280;17546;42.674;23.284;2023-02-18T15:24:36;95130.63;;;19.80;26.33
30819;BME280;17546;42.674;23.284;2023-02-18T15:27:18;95130.00;;;19.39;26.61
30819;BME280;17546;42.674;23.284;2023-02-18T15:29:49;95130.59;;;19.25;27.10
30819;BME280;17546;42.674;23.284;2023-02-18T15:32:19;95122.16;;;19.25;27.30
30819;BME280;17546;42.674;23.284;2023-02-18T15:34:52;95117.94;;;19.31;27.05